sensor_id;sensor_type;location;lat;lon;timestamp;temperature;humidity
8736;DHT22;4404;49.308;12.178;2023-10-09T06:12:36;11.70;99.90
8736;DHT22;4404;49.308;12.178;2023-10-09T06:15:08;11.80;99.90
8736;DHT22;4404;49.308;12.178;2023-10-09T06:17:28;12.00;99.90
8736;DHT22;4404;49.308;12.178;2023-10-09T06:19:45;12.00;99.90
8736;DHT22;4404;49.308;12.178;2023-10-09T06:21:58;12.10;99.90
8736;DHT22;4404;49.308;12.178;2023-10-09T06:24:30;12.20;99.90
8736;DHT22;4404;49.308;12.178;2023-10-09T06:26:56;12.30;99.90
8736;DHT22;4404;49.308;12.178;2023-10-09T06:29:24;12.40;99.90
8736;DHT22;4404;49.308;12.178;2023-10-09T06:32:00;12.50;99.90
8736;DHT22;4404;49.308;12.178;2023-10-09T06:34:20;12.50;99.90
8736;DHT22;4404;49.308;12.178;2023-10-09T06:36:38;12.50;99.90
8736;DHT22;4404;49.308;12.178;2023-10-09T06:39:00;12.60;99.90
8736;DHT22;4404;49.308;12.178;2023-10-09T06:41:18;12.60;99.90
8736;DHT22;4404;49.308;12.178;2023-10-09T06:43:46;12.70;99.90
8736;DHT22;4404;49.308;12.178;2023-10-09T06:46:29;12.80;99.90
8736;DHT22;4404;49.308;12.178;2023-10-09T06:48:56;12.80;99.90
8736;DHT22;4404;49.308;12.178;2023-10-09T06:51:02;12.80;99.90
8736;DHT22;4404;49.308;12.178;2023-10-09T06:56:11;13.00;99.90
8736;DHT22;4404;49.308;12.178;2023-10-09T06:58:33;13.30;99.90
8736;DHT22;4404;49.308;12.178;2023-10-09T07:00:50;13.30;99.90
8736;DHT22;4404;49.308;12.178;2023-10-09T07:03:12;13.50;99.90
8736;DHT22;4404;49.308;12.178;2023-10-09T07:05:15;13.50;99.90
8736;DHT22;4404;49.308;12.178;2023-10-09T07:07:22;13.60;99.90
8736;DHT22;4404;49.308;12.178;2023-10-09T07:09:26;13.70;99.90
8736;DHT22;4404;49.308;12.178;2023-10-09T07:24:56;14.00;99.90
8736;DHT22;4404;49.308;12.178;2023-10-09T07:26:59;14.10;99.90
8736;DHT22;4404;49.308;12.178;2023-10-09T07:29:08;14.10;99.90
8736;DHT22;4404;49.308;12.178;2023-10-09T07:31:34;14.10;99.90
8736;DHT22;4404;49.308;12.178;2023-10-09T07:33:48;14.20;99.90
8736;DHT22;4404;49.308;12.178;2023-10-09T07:36:01;14.00;99.90
8736;DHT22;4404;49.308;12.178;2023-10-09T07:38:17;13.90;99.90
8736;DHT22;4404;49.308;12.178;2023-10-09T07:40:51;14.00;99.90
8736;DHT22;4404;49.308;12.178;2023-10-09T07:57:47;14.30;99.90
8736;DHT22;4404;49.308;12.178;2023-10-09T08:02:23;14.80;99.90
8736;DHT22;4404;49.308;12.178;2023-10-09T08:04:32;14.90;99.90
8736;DHT22;4404;49.308;12.178;2023-10-09T08:06:41;15.00;99.90
8736;DHT22;4404;49.308;12.178;2023-10-09T08:08:45;15.40;99.90
8736;DHT22;4404;49.308;12.178;2023-10-09T08:11:09;15.20;99.90
8736;DHT22;4404;49.308;12.178;2023-10-09T08:13:31;15.10;99.90
8736;DHT22;4404;49.308;12.178;2023-10-09T08:15:57;15.20;99.90
8736;DHT22;4404;49.308;12.178;2023-10-09T08:18:02;15.30;99.90
8736;DHT22;4404;49.308;12.178;2023-10-09T08:20:21;15.50;99.90
8736;DHT22;4404;49.308;12.178;2023-10-09T08:22:26;15.60;99.90
8736;DHT22;4404;49.308;12.178;2023-10-09T08:24:51;15.70;99.90
8736;DHT22;4404;49.308;12.178;2023-10-09T08:26:53;15.80;99.90
8736;DHT22;4404;49.308;12.178;2023-10-09T08:29:17;15.90;99.90
8736;DHT22;4404;49.308;12.178;2023-10-09T08:31:20;15.80;99.90
8736;DHT22;4404;49.308;12.178;2023-10-09T08:33:45;15.90;99.90
8736;DHT22;4404;49.308;12.178;2023-10-09T08:35:57;15.90;99.90
8736;DHT22;4404;49.308;12.178;2023-10-09T08:38:05;16.10;99.90
8736;DHT22;4404;49.308;12.178;2023-10-09T08:40:10;16.10;99.90
8736;DHT22;4404;49.308;12.178;2023-10-09T08:42:19;16.00;99.90
8736;DHT22;4404;49.308;12.178;2023-10-09T08:44:23;15.90;99.90
8736;DHT22;4404;49.308;12.178;2023-10-09T08:46:29;16.00;99.90
8736;DHT22;4404;49.308;12.178;2023-10-09T08:48:32;16.10;99.90
8736;DHT22;4404;49.308;12.178;2023-10-09T08:50:51;16.20;99.90
8736;DHT22;4404;49.308;12.178;2023-10-09T08:52:56;16.30;99.90
8736;DHT22;4404;49.308;12.178;2023-10-09T08:54:58;16.30;99.90
8736;DHT22;4404;49.308;12.178;2023-10-09T08:57:00;16.30;99.90
8736;DHT22;4404;49.308;12.178;2023-10-09T08:59:02;16.60;99.90
8736;DHT22;4404;49.308;12.178;2023-10-09T09:01:06;16.60;99.90
8736;DHT22;4404;49.308;12.178;2023-10-09T09:03:08;16.70;99.90
8736;DHT22;4404;49.308;12.178;2023-10-09T09:05:17;16.70;99.90
8736;DHT22;4404;49.308;12.178;2023-10-09T09:07:35;16.90;99.90
8736;DHT22;4404;49.308;12.178;2023-10-09T09:09:54;16.80;99.90
8736;DHT22;4404;49.308;12.178;2023-10-09T09:11:57;16.80;99.90
8736;DHT22;4404;49.308;12.178;2023-10-09T09:14:02;16.80;99.90
8736;DHT22;4404;49.308;12.178;2023-10-09T09:16:18;16.90;99.90
8736;DHT22;4404;49.308;12.178;2023-10-09T09:18:20;17.10;99.90
8736;DHT22;4404;49.308;12.178;2023-10-09T09:20:23;17.00;99.90
8736;DHT22;4404;49.308;12.178;2023-10-09T09:22:51;17.10;99.90
8736;DHT22;4404;49.308;12.178;2023-10-09T09:24:58;17.20;99.90
8736;DHT22;4404;49.308;12.178;2023-10-09T09:27:04;17.10;99.90
8736;DHT22;4404;49.308;12.178;2023-10-09T09:29:14;17.20;99.90
8736;DHT22;4404;49.308;12.178;2023-10-09T09:31:19;17.30;99.90
8736;DHT22;4404;49.308;12.178;2023-10-09T09:33:24;17.30;99.90
8736;DHT22;4404;49.308;12.178;2023-10-09T09:35:40;17.20;99.90
8736;DHT22;4404;49.308;12.178;2023-10-09T09:37:58;17.20;99.90
8736;DHT22;4404;49.308;12.178;2023-10-09T09:40:06;17.20;99.90
8736;DHT22;4404;49.308;12.178;2023-10-09T09:42:19;17.20;99.90
8736;DHT22;4404;49.308;12.178;2023-10-09T09:44:26;17.30;99.90
8736;DHT22;4404;49.308;12.178;2023-10-09T09:46:35;17.40;99.90
8736;DHT22;4404;49.308;12.178;2023-10-09T09:48:38;17.10;99.90
8736;DHT22;4404;49.308;12.178;2023-10-09T09:50:45;17.20;99.90
8736;DHT22;4404;49.308;12.178;2023-10-09T09:52:48;17.40;99.90
8736;DHT22;4404;49.308;12.178;2023-10-09T09:54:54;17.30;99.90
8736;DHT22;4404;49.308;12.178;2023-10-09T09:56:57;17.20;99.90
8736;DHT22;4404;49.308;12.178;2023-10-09T09:59:02;17.20;99.90
8736;DHT22;4404;49.308;12.178;2023-10-09T10:01:08;17.30;99.90
8736;DHT22;4404;49.308;12.178;2023-10-09T10:03:24;17.30;99.90
8736;DHT22;4404;49.308;12.178;2023-10-09T10:05:33;17.20;99.90
8736;DHT22;4404;49.308;12.178;2023-10-09T10:07:36;17.10;99.90
8736;DHT22;4404;49.308;12.178;2023-10-09T10:09:43;17.20;99.90
8736;DHT22;4404;49.308;12.178;2023-10-09T10:11:46;17.20;99.90
8736;DHT22;4404;49.308;12.178;2023-10-09T10:13:55;17.10;99.90
8736;DHT22;4404;49.308;12.178;2023-10-09T10:16:09;17.00;99.90
8736;DHT22;4404;49.308;12.178;2023-10-09T10:18:13;17.00;99.90
8736;DHT22;4404;49.308;12.178;2023-10-09T10:20:21;17.00;99.90
8736;DHT22;4404;49.308;12.178;2023-10-09T10:22:31;16.90;99.90
8736;DHT22;4404;49.308;12.178;2023-10-09T10:24:41;16.80;99.90
8736;DHT22;4404;49.308;12.178;2023-10-09T10:27:15;17.10;99.90
8736;DHT22;4404;49.308;12.178;2023-10-09T10:29:21;17.10;99.90
8736;DHT22;4404;49.308;12.178;2023-10-09T10:31:51;17.10;99.90
8736;DHT22;4404;49.308;12.178;2023-10-09T10:34:06;17.20;99.90
8736;DHT22;4404;49.308;12.178;2023-10-09T10:36:14;17.20;99.90
8736;DHT22;4404;49.308;12.178;2023-10-09T10:38:30;17.20;99.90
8736;DHT22;4404;49.308;12.178;2023-10-09T10:40:38;17.20;99.90
8736;DHT22;4404;49.308;12.178;2023-10-09T10:42:47;17.20;99.90
8736;DHT22;4404;49.308;12.178;2023-10-09T10:45:18;17.30;99.90
8736;DHT22;4404;49.308;12.178;2023-10-09T10:47:36;17.30;99.90
8736;DHT22;4404;49.308;12.178;2023-10-09T10:49:37;17.30;99.90
8736;DHT22;4404;49.308;12.178;2023-10-09T10:51:43;17.30;99.90
8736;DHT22;4404;49.308;12.178;2023-10-09T10:53:51;17.40;99.90
8736;DHT22;4404;49.308;12.178;2023-10-09T10:55:59;17.50;99.90
8736;DHT22;4404;49.308;12.178;2023-10-09T10:58:18;17.40;99.90
8736;DHT22;4404;49.308;12.178;2023-10-09T11:00:24;17.30;99.90
8736;DHT22;4404;49.308;12.178;2023-10-09T11:02:43;17.20;99.90
8736;DHT22;4404;49.308;12.178;2023-10-09T11:04:48;17.20;99.90
8736;DHT22;4404;49.308;12.178;2023-10-09T11:06:57;17.30;99.90
8736;DHT22;4404;49.308;12.178;2023-10-09T11:09:08;17.30;99.90
8736;DHT22;4404;49.308;12.178;2023-10-09T11:11:22;17.30;99.90
8736;DHT22;4404;49.308;12.178;2023-10-09T11:13:25;17.20;99.90
8736;DHT22;4404;49.308;12.178;2023-10-09T11:15:32;17.20;99.90
8736;DHT22;4404;49.308;12.178;2023-10-09T11:17:44;17.10;99.90
8736;DHT22;4404;49.308;12.178;2023-10-09T11:19:47;17.20;99.90
8736;DHT22;4404;49.308;12.178;2023-10-09T11:21:50;17.20;99.90
8736;DHT22;4404;49.308;12.178;2023-10-09T11:24:01;17.30;99.90
8736;DHT22;4404;49.308;12.178;2023-10-09T11:26:17;17.20;99.90
8736;DHT22;4404;49.308;12.178;2023-10-09T11:28:26;17.20;99.90
8736;DHT22;4404;49.308;12.178;2023-10-09T11:30:31;17.20;99.90
8736;DHT22;4404;49.308;12.178;2023-10-09T11:32:36;17.20;99.90
8736;DHT22;4404;49.308;12.178;2023-10-09T11:34:39;17.30;99.90
8736;DHT22;4404;49.308;12.178;2023-10-09T11:36:48;17.30;99.90
8736;DHT22;4404;49.308;12.178;2023-10-09T11:38:58;17.20;99.90
8736;DHT22;4404;49.308;12.178;2023-10-09T11:41:15;17.30;99.90
8736;DHT22;4404;49.308;12.178;2023-10-09T11:43:20;17.40;99.90
8736;DHT22;4404;49.308;12.178;2023-10-09T11:45:27;17.40;99.90
8736;DHT22;4404;49.308;12.178;2023-10-09T11:47:34;17.50;99.90
8736;DHT22;4404;49.308;12.178;2023-10-09T11:49:48;17.60;99.90
8736;DHT22;4404;49.308;12.178;2023-10-09T11:52:05;17.50;99.90
8736;DHT22;4404;49.308;12.178;2023-10-09T11:54:30;17.40;99.90
8736;DHT22;4404;49.308;12.178;2023-10-09T11:56:33;17.30;99.90
8736;DHT22;4404;49.308;12.178;2023-10-09T11:58:34;17.40;99.90
8736;DHT22;4404;49.308;12.178;2023-10-09T12:00:40;17.20;99.90
8736;DHT22;4404;49.308;12.178;2023-10-09T12:02:46;17.10;99.90
8736;DHT22;4404;49.308;12.178;2023-10-09T12:04:50;17.00;99.90
8736;DHT22;4404;49.308;12.178;2023-10-09T12:06:52;16.90;99.90
8736;DHT22;4404;49.308;12.178;2023-10-09T12:09:06;17.10;99.90
8736;DHT22;4404;49.308;12.178;2023-10-09T12:11:18;17.30;99.90
8736;DHT22;4404;49.308;12.178;2023-10-09T12:13:29;17.40;99.90
8736;DHT22;4404;49.308;12.178;2023-10-09T12:15:31;17.40;99.90
8736;DHT22;4404;49.308;12.178;2023-10-09T12:17:38;17.50;99.90
8736;DHT22;4404;49.308;12.178;2023-10-09T12:19:44;17.60;99.90
8736;DHT22;4404;49.308;12.178;2023-10-09T12:21:48;17.60;99.90
8736;DHT22;4404;49.308;12.178;2023-10-09T12:23:50;17.50;99.90
8736;DHT22;4404;49.308;12.178;2023-10-09T12:25:54;17.40;99.90
8736;DHT22;4404;49.308;12.178;2023-10-09T12:27:58;17.50;99.90
8736;DHT22;4404;49.308;12.178;2023-10-09T12:30:02;17.50;99.90
8736;DHT22;4404;49.308;12.178;2023-10-09T12:32:04;17.40;99.90
8736;DHT22;4404;49.308;12.178;2023-10-09T12:34:12;17.50;99.90
8736;DHT22;4404;49.308;12.178;2023-10-09T12:36:16;17.60;99.90
8736;DHT22;4404;49.308;12.178;2023-10-09T12:38:20;17.60;99.90
8736;DHT22;4404;49.308;12.178;2023-10-09T12:40:23;17.70;99.90
8736;DHT22;4404;49.308;12.178;2023-10-09T12:42:29;17.70;99.90
8736;DHT22;4404;49.308;12.178;2023-10-09T12:44:34;17.60;99.90
8736;DHT22;4404;49.308;12.178;2023-10-09T12:46:39;17.60;99.90
8736;DHT22;4404;49.308;12.178;2023-10-09T12:48:41;17.50;99.90
8736;DHT22;4404;49.308;12.178;2023-10-09T12:50:49;17.40;99.90
8736;DHT22;4404;49.308;12.178;2023-10-09T12:52:57;17.50;99.90
8736;DHT22;4404;49.308;12.178;2023-10-09T12:55:03;17.50;99.90
8736;DHT22;4404;49.308;12.178;2023-10-09T12:57:10;17.60;99.90
8736;DHT22;4404;49.308;12.178;2023-10-09T12:59:14;17.60;99.90
8736;DHT22;4404;49.308;12.178;2023-10-09T13:01:20;17.60;99.90
8736;DHT22;4404;49.308;12.178;2023-10-09T13:03:21;17.60;99.90
8736;DHT22;4404;49.308;12.178;2023-10-09T13:05:30;17.60;99.90
8736;DHT22;4404;49.308;12.178;2023-10-09T13:07:35;17.50;99.90
8736;DHT22;4404;49.308;12.178;2023-10-09T13:09:37;17.40;99.90
8736;DHT22;4404;49.308;12.178;2023-10-09T13:11:43;17.30;99.90
8736;DHT22;4404;49.308;12.178;2023-10-09T13:13:49;17.20;99.90
8736;DHT22;4404;49.308;12.178;2023-10-09T13:18:14;17.30;99.90
8736;DHT22;4404;49.308;12.178;2023-10-09T13:20:17;17.30;99.90
8736;DHT22;4404;49.308;12.178;2023-10-09T13:22:20;17.30;99.90
8736;DHT22;4404;49.308;12.178;2023-10-09T13:24:23;17.10;99.90
8736;DHT22;4404;49.308;12.178;2023-10-09T13:26:30;17.10;99.90
8736;DHT22;4404;49.308;12.178;2023-10-09T13:28:33;17.00;99.90
8736;DHT22;4404;49.308;12.178;2023-10-09T13:30:38;17.10;99.90
8736;DHT22;4404;49.308;12.178;2023-10-09T13:32:50;17.10;99.90
8736;DHT22;4404;49.308;12.178;2023-10-09T13:34:53;17.10;99.90
8736;DHT22;4404;49.308;12.178;2023-10-09T13:36:56;17.10;99.90
8736;DHT22;4404;49.308;12.178;2023-10-09T13:39:01;17.20;99.90
8736;DHT22;4404;49.308;12.178;2023-10-09T13:41:21;17.30;99.90
8736;DHT22;4404;49.308;12.178;2023-10-09T13:43:26;17.20;99.90
8736;DHT22;4404;49.308;12.178;2023-10-09T13:45:29;17.20;99.90
8736;DHT22;4404;49.308;12.178;2023-10-09T13:47:31;17.20;99.90
8736;DHT22;4404;49.308;12.178;2023-10-09T13:49:33;17.20;99.90
8736;DHT22;4404;49.308;12.178;2023-10-09T13:51:40;17.20;99.90
8736;DHT22;4404;49.308;12.178;2023-10-09T13:53:45;17.30;99.90
8736;DHT22;4404;49.308;12.178;2023-10-09T13:55:46;17.30;99.90
8736;DHT22;4404;49.308;12.178;2023-10-09T13:57:48;17.40;99.90
8736;DHT22;4404;49.308;12.178;2023-10-09T13:59:50;17.40;99.90
8736;DHT22;4404;49.308;12.178;2023-10-09T14:01:52;17.30;99.90
8736;DHT22;4404;49.308;12.178;2023-10-09T14:03:55;17.30;99.90
8736;DHT22;4404;49.308;12.178;2023-10-09T14:05:58;17.50;99.90
8736;DHT22;4404;49.308;12.178;2023-10-09T14:08:12;17.50;99.90
8736;DHT22;4404;49.308;12.178;2023-10-09T14:10:16;17.60;99.90
8736;DHT22;4404;49.308;12.178;2023-10-09T14:12:18;17.60;99.90
8736;DHT22;4404;49.308;12.178;2023-10-09T14:14:23;17.60;99.90
8736;DHT22;4404;49.308;12.178;2023-10-09T14:16:26;17.60;99.90
8736;DHT22;4404;49.308;12.178;2023-10-09T14:18:29;17.60;99.90
8736;DHT22;4404;49.308;12.178;2023-10-09T14:20:30;17.80;99.90
8736;DHT22;4404;49.308;12.178;2023-10-09T14:22:32;17.80;99.90
8736;DHT22;4404;49.308;12.178;2023-10-09T14:24:40;17.80;99.90
8736;DHT22;4404;49.308;12.178;2023-10-09T14:26:45;18.00;99.90
8736;DHT22;4404;49.308;12.178;2023-10-09T14:28:48;18.10;99.90
8736;DHT22;4404;49.308;12.178;2023-10-09T14:30:53;18.10;99.90
8736;DHT22;4404;49.308;12.178;2023-10-09T14:33:01;18.10;99.90
8736;DHT22;4404;49.308;12.178;2023-10-09T14:35:04;18.20;99.90
8736;DHT22;4404;49.308;12.178;2023-10-09T14:37:13;18.40;99.90
8736;DHT22;4404;49.308;12.178;2023-10-09T14:39:15;18.40;99.90
8736;DHT22;4404;49.308;12.178;2023-10-09T14:41:22;18.40;99.90
8736;DHT22;4404;49.308;12.178;2023-10-09T14:43:26;18.40;99.90
8736;DHT22;4404;49.308;12.178;2023-10-09T14:45:28;18.50;99.90
8736;DHT22;4404;49.308;12.178;2023-10-09T14:47:31;18.40;99.90
8736;DHT22;4404;49.308;12.178;2023-10-09T14:49:33;18.50;99.90
8736;DHT22;4404;49.308;12.178;2023-10-09T14:51:37;18.60;99.90
8736;DHT22;4404;49.308;12.178;2023-10-09T14:53:39;18.60;99.90
8736;DHT22;4404;49.308;12.178;2023-10-09T14:55:41;18.60;99.90
8736;DHT22;4404;49.308;12.178;2023-10-09T14:57:47;18.60;99.90
8736;DHT22;4404;49.308;12.178;2023-10-09T14:59:50;18.60;99.90
8736;DHT22;4404;49.308;12.178;2023-10-09T15:01:53;18.60;99.90
8736;DHT22;4404;49.308;12.178;2023-10-09T15:03:56;18.50;99.90
8736;DHT22;4404;49.308;12.178;2023-10-09T15:06:00;18.50;99.90
8736;DHT22;4404;49.308;12.178;2023-10-09T15:08:02;18.50;99.90
8736;DHT22;4404;49.308;12.178;2023-10-09T15:10:05;18.50;99.90
8736;DHT22;4404;49.308;12.178;2023-10-09T15:12:09;18.60;99.90
8736;DHT22;4404;49.308;12.178;2023-10-09T15:14:13;18.60;99.90
8736;DHT22;4404;49.308;12.178;2023-10-09T15:16:16;18.70;99.90
8736;DHT22;4404;49.308;12.178;2023-10-09T15:18:18;18.70;99.90
8736;DHT22;4404;49.308;12.178;2023-10-09T15:20:22;18.60;99.90
8736;DHT22;4404;49.308;12.178;2023-10-09T15:22:24;18.60;99.90
8736;DHT22;4404;49.308;12.178;2023-10-09T15:24:35;18.70;99.90
8736;DHT22;4404;49.308;12.178;2023-10-09T15:26:38;18.70;99.90
8736;DHT22;4404;49.308;12.178;2023-10-09T15:28:40;18.60;99.90
8736;DHT22;4404;49.308;12.178;2023-10-09T15:30:43;18.60;99.90
8736;DHT22;4404;49.308;12.178;2023-10-09T15:32:48;18.50;99.90
8736;DHT22;4404;49.308;12.178;2023-10-09T15:34:55;18.50;99.90
8736;DHT22;4404;49.308;12.178;2023-10-09T15:36:58;18.50;99.90
8736;DHT22;4404;49.308;12.178;2023-10-09T15:39:00;18.50;99.90
8736;DHT22;4404;49.308;12.178;2023-10-09T15:41:04;18.40;99.90
8736;DHT22;4404;49.308;12.178;2023-10-09T15:43:06;18.40;99.90
8736;DHT22;4404;49.308;12.178;2023-10-09T15:45:13;18.20;99.90
8736;DHT22;4404;49.308;12.178;2023-10-09T15:47:18;18.10;99.90
8736;DHT22;4404;49.308;12.178;2023-10-09T15:49:22;18.00;99.90
8736;DHT22;4404;49.308;12.178;2023-10-09T15:51:24;18.00;99.90
8736;DHT22;4404;49.308;12.178;2023-10-09T15:53:26;18.10;99.90
8736;DHT22;4404;49.308;12.178;2023-10-09T15:55:27;18.20;99.90
8736;DHT22;4404;49.308;12.178;2023-10-09T15:57:29;18.20;99.90
8736;DHT22;4404;49.308;12.178;2023-10-09T15:59:33;18.10;99.90
8736;DHT22;4404;49.308;12.178;2023-10-09T16:01:35;18.10;99.90
8736;DHT22;4404;49.308;12.178;2023-10-09T16:03:45;18.10;99.90
8736;DHT22;4404;49.308;12.178;2023-10-09T16:05:48;18.10;99.90
8736;DHT22;4404;49.308;12.178;2023-10-09T16:07:57;18.20;99.90
8736;DHT22;4404;49.308;12.178;2023-10-09T16:10:04;18.20;99.90
8736;DHT22;4404;49.308;12.178;2023-10-09T16:12:08;18.10;99.90
8736;DHT22;4404;49.308;12.178;2023-10-09T16:14:13;18.10;99.90
8736;DHT22;4404;49.308;12.178;2023-10-09T16:16:24;18.30;99.90
8736;DHT22;4404;49.308;12.178;2023-10-09T16:18:27;18.30;99.90
8736;DHT22;4404;49.308;12.178;2023-10-09T16:20:29;18.20;99.90
8736;DHT22;4404;49.308;12.178;2023-10-09T16:22:32;18.20;99.90
8736;DHT22;4404;49.308;12.178;2023-10-09T16:25:04;18.20;99.90
8736;DHT22;4404;49.308;12.178;2023-10-09T16:27:26;18.20;99.90
8736;DHT22;4404;49.308;12.178;2023-10-09T16:29:29;18.10;99.90
8736;DHT22;4404;49.308;12.178;2023-10-09T16:31:31;18.10;99.90
8736;DHT22;4404;49.308;12.178;2023-10-09T16:33:36;18.00;99.90
8736;DHT22;4404;49.308;12.178;2023-10-09T16:35:39;17.90;99.90
8736;DHT22;4404;49.308;12.178;2023-10-09T16:37:43;18.00;99.90
8736;DHT22;4404;49.308;12.178;2023-10-09T16:39:51;17.90;99.90
8736;DHT22;4404;49.308;12.178;2023-10-09T16:41:54;17.90;99.90
8736;DHT22;4404;49.308;12.178;2023-10-09T16:43:56;17.80;99.90
8736;DHT22;4404;49.308;12.178;2023-10-09T16:46:01;17.80;99.90
8736;DHT22;4404;49.308;12.178;2023-10-09T16:48:09;17.70;99.90
8736;DHT22;4404;49.308;12.178;2023-10-09T16:50:11;17.70;99.90
8736;DHT22;4404;49.308;12.178;2023-10-09T16:52:13;17.70;99.90
8736;DHT22;4404;49.308;12.178;2023-10-09T16:54:15;17.60;99.90
8736;DHT22;4404;49.308;12.178;2023-10-09T16:56:18;17.60;99.90
8736;DHT22;4404;49.308;12.178;2023-10-09T16:58:21;17.60;99.90
8736;DHT22;4404;49.308;12.178;2023-10-09T17:00:24;17.50;99.90
8736;DHT22;4404;49.308;12.178;2023-10-09T17:02:35;17.40;99.90
8736;DHT22;4404;49.308;12.178;2023-10-09T17:04:38;17.30;99.90
8736;DHT22;4404;49.308;12.178;2023-10-09T17:06:43;17.30;99.90
8736;DHT22;4404;49.308;12.178;2023-10-09T17:08:47;17.40;99.90
8736;DHT22;4404;49.308;12.178;2023-10-09T17:10:51;17.40;99.90
8736;DHT22;4404;49.308;12.178;2023-10-09T17:12:53;17.50;99.90
8736;DHT22;4404;49.308;12.178;2023-10-09T17:14:55;17.50;99.90
8736;DHT22;4404;49.308;12.178;2023-10-09T17:16:57;17.40;99.90
8736;DHT22;4404;49.308;12.178;2023-10-09T17:18:59;17.30;99.90
8736;DHT22;4404;49.308;12.178;2023-10-09T17:21:01;17.30;99.90
8736;DHT22;4404;49.308;12.178;2023-10-09T17:23:04;17.30;99.90
8736;DHT22;4404;49.308;12.178;2023-10-09T17:25:08;17.20;99.90
8736;DHT22;4404;49.308;12.178;2023-10-09T17:27:12;17.20;99.90
8736;DHT22;4404;49.308;12.178;2023-10-09T17:29:18;17.20;99.90
8736;DHT22;4404;49.308;12.178;2023-10-09T17:31:20;17.10;99.90
8736;DHT22;4404;49.308;12.178;2023-10-09T17:33:26;17.10;99.90
8736;DHT22;4404;49.308;12.178;2023-10-09T17:35:27;17.10;99.90
8736;DHT22;4404;49.308;12.178;2023-10-09T17:37:31;17.00;99.90
8736;DHT22;4404;49.308;12.178;2023-10-09T17:39:34;16.90;99.90
8736;DHT22;4404;49.308;12.178;2023-10-09T17:41:40;16.90;99.90
8736;DHT22;4404;49.308;12.178;2023-10-09T17:43:42;17.00;99.90
8736;DHT22;4404;49.308;12.178;2023-10-09T17:45:45;16.90;99.90
8736;DHT22;4404;49.308;12.178;2023-10-09T17:47:47;16.80;99.90
8736;DHT22;4404;49.308;12.178;2023-10-09T17:49:49;16.80;99.90
8736;DHT22;4404;49.308;12.178;2023-10-09T17:51:50;16.70;99.90
8736;DHT22;4404;49.308;12.178;2023-10-09T17:53:53;16.70;99.90
8736;DHT22;4404;49.308;12.178;2023-10-09T17:55:55;16.60;99.90
8736;DHT22;4404;49.308;12.178;2023-10-09T17:57:57;16.50;99.90
8736;DHT22;4404;49.308;12.178;2023-10-09T18:00:00;16.40;99.90
8736;DHT22;4404;49.308;12.178;2023-10-09T18:02:04;16.40;99.90
8736;DHT22;4404;49.308;12.178;2023-10-09T18:04:06;16.40;99.90
8736;DHT22;4404;49.308;12.178;2023-10-09T18:06:08;16.40;99.90
8736;DHT22;4404;49.308;12.178;2023-10-09T18:08:13;16.40;99.90
8736;DHT22;4404;49.308;12.178;2023-10-09T18:10:16;16.30;99.90
8736;DHT22;4404;49.308;12.178;2023-10-09T18:12:19;16.30;99.90
8736;DHT22;4404;49.308;12.178;2023-10-09T18:14:23;16.40;99.90
8736;DHT22;4404;49.308;12.178;2023-10-09T18:16:25;16.50;99.90
8736;DHT22;4404;49.308;12.178;2023-10-09T18:18:29;16.40;99.90
8736;DHT22;4404;49.308;12.178;2023-10-09T18:20:32;16.50;99.90
8736;DHT22;4404;49.308;12.178;2023-10-09T18:22:38;16.50;99.90
8736;DHT22;4404;49.308;12.178;2023-10-09T18:24:40;16.50;99.90
8736;DHT22;4404;49.308;12.178;2023-10-09T18:26:44;16.50;99.90
8736;DHT22;4404;49.308;12.178;2023-10-09T18:28:46;16.50;99.90
8736;DHT22;4404;49.308;12.178;2023-10-09T18:30:51;16.60;99.90
8736;DHT22;4404;49.308;12.178;2023-10-09T18:32:52;16.50;99.90
8736;DHT22;4404;49.308;12.178;2023-10-09T18:34:57;16.50;99.90
8736;DHT22;4404;49.308;12.178;2023-10-09T18:36:59;16.50;99.90
8736;DHT22;4404;49.308;12.178;2023-10-09T18:39:01;16.40;99.90
8736;DHT22;4404;49.308;12.178;2023-10-09T18:41:05;16.40;99.90
8736;DHT22;4404;49.308;12.178;2023-10-09T18:43:07;16.40;99.90
8736;DHT22;4404;49.308;12.178;2023-10-09T18:45:11;16.30;99.90
8736;DHT22;4404;49.308;12.178;2023-10-09T18:47:17;16.30;99.90
8736;DHT22;4404;49.308;12.178;2023-10-09T18:49:20;16.30;99.90
8736;DHT22;4404;49.308;12.178;2023-10-09T18:51:22;16.20;99.90
8736;DHT22;4404;49.308;12.178;2023-10-09T18:53:24;16.20;99.90
8736;DHT22;4404;49.308;12.178;2023-10-09T18:55:26;16.20;99.90
8736;DHT22;4404;49.308;12.178;2023-10-09T18:57:30;16.10;99.90
8736;DHT22;4404;49.308;12.178;2023-10-09T18:59:36;16.10;99.90
8736;DHT22;4404;49.308;12.178;2023-10-09T19:01:38;16.10;99.90
8736;DHT22;4404;49.308;12.178;2023-10-09T19:03:43;16.20;99.90
8736;DHT22;4404;49.308;12.178;2023-10-09T19:05:48;16.10;99.90
8736;DHT22;4404;49.308;12.178;2023-10-09T19:07:52;16.20;99.90
8736;DHT22;4404;49.308;12.178;2023-10-09T19:09:55;16.10;99.90
8736;DHT22;4404;49.308;12.178;2023-10-09T19:11:57;16.00;99.90
8736;DHT22;4404;49.308;12.178;2023-10-09T19:14:00;15.90;99.90
8736;DHT22;4404;49.308;12.178;2023-10-09T19:16:02;15.80;99.90
8736;DHT22;4404;49.308;12.178;2023-10-09T19:18:06;15.70;99.90
8736;DHT22;4404;49.308;12.178;2023-10-09T19:20:13;15.60;99.90
8736;DHT22;4404;49.308;12.178;2023-10-09T19:22:17;15.60;99.90
8736;DHT22;4404;49.308;12.178;2023-10-09T19:24:20;15.60;99.90
8736;DHT22;4404;49.308;12.178;2023-10-09T19:26:22;15.60;99.90
8736;DHT22;4404;49.308;12.178;2023-10-09T19:28:27;15.70;99.90
8736;DHT22;4404;49.308;12.178;2023-10-09T19:30:29;15.80;99.90
8736;DHT22;4404;49.308;12.178;2023-10-09T19:32:33;15.90;99.90
8736;DHT22;4404;49.308;12.178;2023-10-09T19:34:37;15.90;99.90
8736;DHT22;4404;49.308;12.178;2023-10-09T19:36:41;15.90;99.90
8736;DHT22;4404;49.308;12.178;2023-10-09T19:38:47;15.90;99.90
8736;DHT22;4404;49.308;12.178;2023-10-09T19:40:51;15.80;99.90
8736;DHT22;4404;49.308;12.178;2023-10-09T19:42:53;15.70;99.90
8736;DHT22;4404;49.308;12.178;2023-10-09T19:44:55;15.70;99.90
8736;DHT22;4404;49.308;12.178;2023-10-09T19:46:58;15.70;99.90
8736;DHT22;4404;49.308;12.178;2023-10-09T19:49:00;15.70;99.90
8736;DHT22;4404;49.308;12.178;2023-10-09T19:51:03;15.70;99.90
8736;DHT22;4404;49.308;12.178;2023-10-09T19:53:07;15.70;99.90
8736;DHT22;4404;49.308;12.178;2023-10-09T19:55:09;15.70;99.90
